Time;durP1;ratioP1;P1;durP2;ratioP2;P2;SDS_P1;SDS_P2;PMS_P1;PMS_P2;Temp;Humidity;BMP_temperature;BMP_pressure;BME280_temperature;BME280_humidity;BME280_pressure;Samples;Min_cycle;Max_cycle;Signal;HPM_P1;HPM_P2
2023/12/28 00:00:20;;;;;;;;;;;17.60;45.60;;;;;;1595112;73;1937;-72
2023/12/28 00:02:22;;;;;;;;;;;17.60;45.60;;;;;;1600500;73;762;-72
2023/12/28 00:04:24;;;;;;;;;;;17.60;45.60;;;;;;1590112;73;1137;-72
2023/12/28 00:06:26;;;;;;;;;;;17.60;45.60;;;;;;1596118;73;756;-72
2023/12/28 00:08:28;;;;;;;;;;;17.60;45.60;;;;;;1604661;73;792;-72
2023/12/28 00:10:29;;;;;;;;;;;17.60;45.50;;;;;;1601388;73;779;-74
2023/12/28 00:12:31;;;;;;;;;;;17.60;45.60;;;;;;1602955;73;634;-72
2023/12/28 00:14:33;;;;;;;;;;;17.50;45.60;;;;;;1601088;73;1203;-72
2023/12/28 00:16:37;;;;;;;;;;;17.60;45.60;;;;;;1602370;73;805;-71
2023/12/28 00:18:39;;;;;;;;;;;17.60;45.60;;;;;;1595725;73;761;-72
2023/12/28 00:20:40;;;;;;;;;;;17.50;45.60;;;;;;1601099;73;1912;-72
2023/12/28 00:22:42;;;;;;;;;;;17.60;45.60;;;;;;1612391;73;753;-72
2023/12/28 00:24:44;;;;;;;;;;;17.60;45.50;;;;;;1591403;73;1132;-72
2023/12/28 00:26:46;;;;;;;;;;;17.60;45.50;;;;;;1609696;73;760;-71
2023/12/28 00:28:48;;;;;;;;;;;17.60;45.60;;;;;;1602501;73;778;-72
2023/12/28 00:30:50;;;;;;;;;;;17.60;45.60;;;;;;1593020;73;716;-72
2023/12/28 00:32:52;;;;;;;;;;;17.60;45.60;;;;;;1604454;73;763;-69
2023/12/28 00:34:54;;;;;;;;;;;17.50;45.60;;;;;;1600948;73;1141;-72
2023/12/28 00:36:56;;;;;;;;;;;17.50;45.60;;;;;;1593951;73;791;-71
2023/12/28 00:38:58;;;;;;;;;;;17.50;45.60;;;;;;1584579;73;777;-72
2023/12/28 00:40:59;;;;;;;;;;;17.60;45.60;;;;;;1604152;73;1933;-72
2023/12/28 00:43:01;;;;;;;;;;;17.50;45.60;;;;;;1601328;73;757;-72
2023/12/28 00:45:03;;;;;;;;;;;17.60;45.60;;;;;;1605156;73;1143;-73
2023/12/28 00:47:06;;;;;;;;;;;17.50;45.60;;;;;;1587391;73;759;-69
2023/12/28 00:49:08;;;;;;;;;;;17.60;45.60;;;;;;1596408;73;1472;-68
2023/12/28 00:51:10;;;;;;;;;;;17.60;45.60;;;;;;1597065;73;768;-73
2023/12/28 00:53:12;;;;;;;;;;;17.50;45.60;;;;;;1589061;73;831;-71
2023/12/28 00:55:13;;;;;;;;;;;17.50;45.60;;;;;;1597143;73;1131;-72
2023/12/28 00:57:15;;;;;;;;;;;17.60;45.60;;;;;;1595666;73;799;-71
2023/12/28 00:59:18;;;;;;;;;;;17.60;45.60;;;;;;1605650;73;746;-72
2023/12/28 01:01:19;;;;;;;;;;;17.60;45.50;;;;;;1587386;73;1932;-72
2023/12/28 01:03:21;;;;;;;;;;;17.60;45.50;;;;;;1597135;73;755;-72
2023/12/28 01:05:25;;;;;;;;;;;17.50;45.60;;;;;;1603980;73;1171;-72
2023/12/28 01:07:27;;;;;;;;;;;17.50;45.50;;;;;;1604715;72;1557;-71
2023/12/28 01:09:29;;;;;;;;;;;17.50;45.60;;;;;;1593196;73;767;-71
2023/12/28 01:11:30;;;;;;;;;;;17.60;45.60;;;;;;1592600;73;791;-69
2023/12/28 01:13:32;;;;;;;;;;;17.50;45.60;;;;;;1603559;73;769;-71
2023/12/28 01:15:34;;;;;;;;;;;17.60;45.60;;;;;;1597322;73;1207;-68
2023/12/28 01:17:36;;;;;;;;;;;17.60;45.60;;;;;;1597564;73;817;-70
2023/12/28 01:19:38;;;;;;;;;;;17.60;45.60;;;;;;1604276;73;779;-69
2023/12/28 01:21:40;;;;;;;;;;;17.50;45.50;;;;;;1595498;73;1944;-68
2023/12/28 01:23:42;;;;;;;;;;;17.60;45.50;;;;;;1594081;73;792;-72
2023/12/28 01:25:44;;;;;;;;;;;17.60;45.50;;;;;;1609163;73;1156;-71
2023/12/28 01:27:46;;;;;;;;;;;17.60;45.60;;;;;;1601511;73;707;-71
2023/12/28 01:29:47;;;;;;;;;;;17.60;45.60;;;;;;1607438;73;793;-71
2023/12/28 01:31:49;;;;;;;;;;;17.50;45.60;;;;;;1597659;73;817;-71
2023/12/28 01:33:51;;;;;;;;;;;17.60;45.60;;;;;;1595679;73;832;-71
2023/12/28 01:35:53;;;;;;;;;;;17.60;45.50;;;;;;1588865;73;1237;-71
2023/12/28 01:37:55;;;;;;;;;;;17.60;45.60;;;;;;1609709;73;802;-72
2023/12/28 01:39:57;;;;;;;;;;;17.10;45.40;;;;;;1588714;73;779;-72
2023/12/28 01:41:59;;;;;;;;;;;17.50;45.60;;;;;;1612285;73;1942;-73
2023/12/28 01:44:01;;;;;;;;;;;17.50;45.50;;;;;;1606551;73;1497;-72
2023/12/28 01:46:02;;;;;;;;;;;17.60;45.60;;;;;;1609337;73;1146;-70
2023/12/28 01:48:04;;;;;;;;;;;17.50;45.60;;;;;;1605198;73;790;-71
2023/12/28 01:50:06;;;;;;;;;;;17.60;45.60;;;;;;1601600;73;630;-72
2023/12/28 01:52:08;;;;;;;;;;;17.60;45.60;;;;;;1596575;73;686;-73
2023/12/28 01:54:10;;;;;;;;;;;17.50;45.60;;;;;;1602550;73;768;-74
2023/12/28 01:56:12;;;;;;;;;;;17.60;45.60;;;;;;1606996;73;1180;-72
2023/12/28 01:58:14;;;;;;;;;;;17.50;45.60;;;;;;1599936;73;798;-72
2023/12/28 02:00:16;;;;;;;;;;;17.50;45.60;;;;;;1607678;73;781;-71
2023/12/28 02:02:18;;;;;;;;;;;17.50;45.70;;;;;;1600950;73;1942;-72
2023/12/28 02:04:26;;;;;;;;;;;17.60;45.60;;;;;;1596561;73;1155;-72
2023/12/28 02:06:23;;;;;;;;;;;17.60;45.70;;;;;;1599281;72;1555;-74
2023/12/28 02:08:25;;;;;;;;;;;17.50;45.60;;;;;;1590625;73;756;-70
2023/12/28 02:10:27;;;;;;;;;;;17.50;45.60;;;;;;1584615;73;785;-72
2023/12/28 02:12:29;;;;;;;;;;;17.60;45.60;;;;;;1594759;73;775;-68
2023/12/28 02:14:31;;;;;;;;;;;17.60;45.60;;;;;;1589985;73;1229;-72
2023/12/28 02:16:34;;;;;;;;;;;17.60;45.60;;;;;;1609250;73;768;-71
2023/12/28 02:18:37;;;;;;;;;;;17.50;45.60;;;;;;1598202;73;784;-72
2023/12/28 02:20:40;;;;;;;;;;;17.60;45.60;;;;;;1587690;73;760;-69
2023/12/28 02:22:41;;;;;;;;;;;17.50;45.60;;;;;;1596018;73;1948;-71
2023/12/28 02:24:59;;;;;;;;;;;17.50;45.60;;;;;;1605771;73;1177;-72
2023/12/28 02:27:01;;;;;;;;;;;17.60;45.60;;;;;;1592364;73;869;-72
2023/12/28 02:29:03;;;;;;;;;;;17.50;45.60;;;;;;1601621;73;765;-72
2023/12/28 02:31:05;;;;;;;;;;;17.60;45.60;;;;;;1594520;73;762;-72
2023/12/28 02:33:14;;;;;;;;;;;17.50;45.60;;;;;;1594858;73;758;-72
2023/12/28 02:35:26;;;;;;;;;;;17.50;45.60;;;;;;1608441;73;1273;-72
2023/12/28 02:37:28;;;;;;;;;;;17.50;45.60;;;;;;1601949;73;777;-70
2023/12/28 02:39:30;;;;;;;;;;;17.60;45.60;;;;;;1605464;73;760;-72
2023/12/28 02:41:32;;;;;;;;;;;17.60;45.60;;;;;;1595889;73;1931;-71
2023/12/28 02:43:34;;;;;;;;;;;17.50;45.60;;;;;;1590851;73;757;-72
2023/12/28 02:45:36;;;;;;;;;;;17.50;45.60;;;;;;1601618;73;1172;-69
2023/12/28 02:47:38;;;;;;;;;;;17.60;45.60;;;;;;1596609;73;661;-70
2023/12/28 02:49:40;;;;;;;;;;;17.60;45.60;;;;;;1603961;73;651;-72
2023/12/28 02:51:42;;;;;;;;;;;17.60;45.60;;;;;;1599551;73;795;-73
2023/12/28 02:53:44;;;;;;;;;;;17.50;45.70;;;;;;1613053;73;762;-72
2023/12/28 02:55:46;;;;;;;;;;;17.60;45.60;;;;;;1604600;73;1152;-71
2023/12/28 02:57:48;;;;;;;;;;;17.60;45.60;;;;;;1610007;73;964;-71
2023/12/28 02:59:49;;;;;;;;;;;17.60;45.60;;;;;;1606002;73;787;-70
2023/12/28 03:01:51;;;;;;;;;;;17.60;45.60;;;;;;1599992;73;1942;-71
2023/12/28 03:03:53;;;;;;;;;;;17.60;45.60;;;;;;1590677;73;723;-73
2023/12/28 03:05:55;;;;;;;;;;;17.60;45.60;;;;;;1602555;73;1146;-73
2023/12/28 03:07:58;;;;;;;;;;;17.60;45.60;;;;;;1592474;73;799;-69
2023/12/28 03:10:00;;;;;;;;;;;17.50;45.60;;;;;;1605963;73;738;-73
2023/12/28 03:12:02;;;;;;;;;;;17.60;45.60;;;;;;1592656;73;676;-72
2023/12/28 03:14:03;;;;;;;;;;;17.60;45.60;;;;;;1600159;73;757;-74
2023/12/28 03:16:05;;;;;;;;;;;17.50;45.60;;;;;;1596121;73;1235;-71
2023/12/28 03:18:07;;;;;;;;;;;17.50;45.70;;;;;;1605179;73;777;-72
2023/12/28 03:20:10;;;;;;;;;;;17.60;45.60;;;;;;1608759;73;784;-72
2023/12/28 03:22:11;;;;;;;;;;;17.60;45.60;;;;;;1593031;73;1925;-69
2023/12/28 03:24:13;;;;;;;;;;;17.50;45.60;;;;;;1604629;73;774;-73
2023/12/28 03:26:15;;;;;;;;;;;17.50;45.60;;;;;;1603914;73;703;-71
2023/12/28 03:28:17;;;;;;;;;;;17.50;45.60;;;;;;1609821;73;765;-72
2023/12/28 03:30:19;;;;;;;;;;;17.60;45.60;;;;;;1610443;73;766;-71
2023/12/28 03:32:21;;;;;;;;;;;17.50;45.60;;;;;;1607334;73;764;-72
2023/12/28 03:34:23;;;;;;;;;;;17.60;45.60;;;;;;1600232;73;1159;-72
2023/12/28 03:36:25;;;;;;;;;;;17.50;45.70;;;;;;1609875;73;1425;-73
2023/12/28 03:38:28;;;;;;;;;;;17.60;45.60;;;;;;1593806;73;777;-72
2023/12/28 03:40:29;;;;;;;;;;;17.40;45.50;;;;;;1609045;73;775;-71
2023/12/28 03:42:31;;;;;;;;;;;17.50;45.60;;;;;;1598282;73;1943;-74
2023/12/28 03:44:33;;;;;;;;;;;17.50;45.70;;;;;;1611088;73;1174;-73
2023/12/28 03:46:35;;;;;;;;;;;17.60;45.60;;;;;;1609456;73;773;-72
2023/12/28 03:48:37;;;;;;;;;;;17.50;45.60;;;;;;1602675;73;793;-72
2023/12/28 03:50:39;;;;;;;;;;;17.60;45.60;;;;;;1602641;73;799;-71
2023/12/28 03:52:41;;;;;;;;;;;17.50;45.60;;;;;;1598997;73;801;-71
2023/12/28 03:54:42;;;;;;;;;;;17.60;45.60;;;;;;1607468;73;1134;-71
2023/12/28 03:56:44;;;;;;;;;;;17.60;45.60;;;;;;1615084;73;789;-74
2023/12/28 03:58:46;;;;;;;;;;;17.50;45.70;;;;;;1609670;73;758;-72
2023/12/28 04:00:48;;;;;;;;;;;17.50;45.60;;;;;;1599687;73;781;-72
2023/12/28 04:02:50;;;;;;;;;;;17.60;45.60;;;;;;1590826;73;1942;-71
2023/12/28 04:04:52;;;;;;;;;;;17.50;45.60;;;;;;1591317;73;1153;-68
2023/12/28 04:06:54;;;;;;;;;;;17.60;45.60;;;;;;1610515;73;796;-70
2023/12/28 04:08:56;;;;;;;;;;;17.50;45.60;;;;;;1597433;73;671;-71
2023/12/28 04:10:58;;;;;;;;;;;17.50;45.60;;;;;;1599587;73;808;-69
2023/12/28 04:13:00;;;;;;;;;;;17.60;45.60;;;;;;1600201;73;791;-73
2023/12/28 04:15:02;;;;;;;;;;;17.60;45.60;;;;;;1592122;73;1219;-73
2023/12/28 04:17:04;;;;;;;;;;;17.50;45.60;;;;;;1605795;73;770;-72
2023/12/28 04:19:06;;;;;;;;;;;17.50;45.60;;;;;;1605068;73;793;-72
2023/12/28 04:21:11;;;;;;;;;;;17.60;45.60;;;;;;1604667;73;697;-69
2023/12/28 04:23:12;;;;;;;;;;;17.60;45.60;;;;;;1593495;73;1936;-72
2023/12/28 04:25:16;;;;;;;;;;;17.50;45.60;;;;;;1594666;73;1211;-72
2023/12/28 04:27:18;;;;;;;;;;;17.60;45.60;;;;;;1607136;73;760;-71
2023/12/28 04:29:20;;;;;;;;;;;17.60;45.60;;;;;;1602404;73;760;-70
2023/12/28 04:31:22;;;;;;;;;;;17.50;45.60;;;;;;1591397;73;628;-72
2023/12/28 04:33:24;;;;;;;;;;;17.50;45.60;;;;;;1590353;73;1423;-72
2023/12/28 04:35:26;;;;;;;;;;;17.60;45.60;;;;;;1600084;73;1160;-71
2023/12/28 04:37:28;;;;;;;;;;;17.60;45.60;;;;;;1594333;73;786;-70
2023/12/28 04:39:30;;;;;;;;;;;17.60;45.60;;;;;;1594284;73;747;-72
2023/12/28 04:41:32;;;;;;;;;;;17.60;45.60;;;;;;1605414;73;793;-72
2023/12/28 04:43:34;;;;;;;;;;;17.60;45.60;;;;;;1601175;73;1945;-70
2023/12/28 04:45:35;;;;;;;;;;;17.60;45.60;;;;;;1604117;73;1174;-70
2023/12/28 04:47:37;;;;;;;;;;;17.60;45.60;;;;;;1601259;73;783;-72
2023/12/28 04:49:39;;;;;;;;;;;17.60;45.60;;;;;;1607542;73;820;-71
2023/12/28 04:51:44;;;;;;;;;;;17.50;45.60;;;;;;1588869;73;796;-71
2023/12/28 04:53:46;;;;;;;;;;;17.60;45.60;;;;;;1603738;73;806;-69
2023/12/28 04:55:48;;;;;;;;;;;17.60;45.50;;;;;;1615656;73;1161;-72
2023/12/28 04:57:50;;;;;;;;;;;17.50;45.60;;;;;;1594768;73;822;-72
2023/12/28 04:59:52;;;;;;;;;;;17.50;45.60;;;;;;1611710;73;769;-71
2023/12/28 05:01:54;;;;;;;;;;;17.60;45.60;;;;;;1592408;73;802;-71
2023/12/28 05:03:56;;;;;;;;;;;17.60;45.60;;;;;;1597487;73;1933;-71
2023/12/28 05:05:58;;;;;;;;;;;17.50;45.60;;;;;;1603113;73;1236;-71
2023/12/28 05:08:00;;;;;;;;;;;17.60;45.50;;;;;;1606545;73;656;-72
2023/12/28 05:10:02;;;;;;;;;;;17.50;45.50;;;;;;1598087;73;799;-73
2023/12/28 05:12:04;;;;;;;;;;;17.60;45.60;;;;;;1589838;73;745;-73
2023/12/28 05:14:06;;;;;;;;;;;17.50;45.50;;;;;;1593176;73;759;-72
2023/12/28 05:16:08;;;;;;;;;;;17.50;45.50;;;;;;1606869;73;1207;-73
2023/12/28 05:18:10;;;;;;;;;;;17.50;45.60;;;;;;1590287;73;795;-72
2023/12/28 05:20:12;;;;;;;;;;;17.60;45.50;;;;;;1593863;73;786;-71
2023/12/28 05:22:13;;;;;;;;;;;17.50;45.60;;;;;;1600354;73;1928;-69
2023/12/28 05:24:15;;;;;;;;;;;17.60;45.50;;;;;;1604782;73;754;-71
2023/12/28 05:26:17;;;;;;;;;;;17.60;45.50;;;;;;1609875;73;762;-71
2023/12/28 05:28:19;;;;;;;;;;;17.60;45.50;;;;;;1602466;73;794;-73
2023/12/28 05:30:21;;;;;;;;;;;17.60;45.50;;;;;;1611187;73;1420;-75
2023/12/28 05:32:23;;;;;;;;;;;17.60;45.50;;;;;;1603745;73;781;-71
2023/12/28 05:34:25;;;;;;;;;;;17.60;45.50;;;;;;1609721;73;1160;-72
2023/12/28 05:36:26;;;;;;;;;;;17.50;45.50;;;;;;1596523;73;787;-72
2023/12/28 05:38:28;;;;;;;;;;;17.50;45.50;;;;;;1599454;73;760;-72
2023/12/28 05:40:30;;;;;;;;;;;17.50;45.50;;;;;;1610474;73;751;-72
2023/12/28 05:42:32;;;;;;;;;;;17.60;45.50;;;;;;1603569;73;1943;-71
2023/12/28 05:44:34;;;;;;;;;;;17.50;45.50;;;;;;1603977;73;1181;-71
2023/12/28 05:46:36;;;;;;;;;;;17.60;45.50;;;;;;1602586;73;800;-69
2023/12/28 05:48:38;;;;;;;;;;;17.50;45.50;;;;;;1609582;73;822;-70
2023/12/28 05:50:40;;;;;;;;;;;17.60;45.50;;;;;;1595580;73;800;-70
2023/12/28 05:52:41;;;;;;;;;;;17.60;45.50;;;;;;1603136;73;843;-69
2023/12/28 05:54:43;;;;;;;;;;;17.50;45.50;;;;;;1600345;73;1221;-71
2023/12/28 05:56:45;;;;;;;;;;;17.50;45.50;;;;;;1610018;73;767;-72
2023/12/28 05:58:47;;;;;;;;;;;17.50;45.50;;;;;;1605163;73;775;-72
2023/12/28 06:00:49;;;;;;;;;;;17.60;45.50;;;;;;1597849;73;807;-74
2023/12/28 06:02:51;;;;;;;;;;;17.50;45.50;;;;;;1598726;73;1940;-71
2023/12/28 06:04:53;;;;;;;;;;;17.50;45.50;;;;;;1595436;73;1189;-72
2023/12/28 06:06:55;;;;;;;;;;;17.50;45.50;;;;;;1595891;73;802;-71
2023/12/28 06:08:57;;;;;;;;;;;17.60;45.50;;;;;;1586049;73;827;-71
2023/12/28 06:11:00;;;;;;;;;;;17.60;45.40;;;;;;1594008;73;1018;-69
2023/12/28 06:13:01;;;;;;;;;;;17.50;45.50;;;;;;1607488;73;752;-70
2023/12/28 06:15:03;;;;;;;;;;;17.50;45.50;;;;;;1596146;73;1183;-72
2023/12/28 06:17:05;;;;;;;;;;;17.50;45.40;;;;;;1597805;73;943;-72
2023/12/28 06:19:09;;;;;;;;;;;17.60;45.50;;;;;;1595136;73;792;-71
2023/12/28 06:21:11;;;;;;;;;;;17.50;45.40;;;;;;1600896;73;1628;-72
2023/12/28 06:23:13;;;;;;;;;;;17.50;45.40;;;;;;1599278;73;1933;-73
2023/12/28 06:25:15;;;;;;;;;;;17.50;45.40;;;;;;1597489;73;1467;-71
2023/12/28 06:27:17;;;;;;;;;;;17.60;45.40;;;;;;1601602;73;765;-70
2023/12/28 06:29:18;;;;;;;;;;;17.60;45.40;;;;;;1600937;73;765;-72
2023/12/28 06:31:20;;;;;;;;;;;17.50;45.40;;;;;;1592029;73;756;-72
2023/12/28 06:33:22;;;;;;;;;;;17.50;45.50;;;;;;1591576;73;772;-72
2023/12/28 06:35:24;;;;;;;;;;;17.50;45.40;;;;;;1606207;73;1176;-72
2023/12/28 06:37:26;;;;;;;;;;;17.50;45.40;;;;;;1594041;73;641;-72
2023/12/28 06:39:28;;;;;;;;;;;17.50;45.40;;;;;;1598744;73;799;-69
2023/12/28 06:41:30;;;;;;;;;;;17.50;45.40;;;;;;1599808;73;814;-73
2023/12/28 06:43:32;;;;;;;;;;;17.50;45.40;;;;;;1596561;73;1957;-69
2023/12/28 06:45:34;;;;;;;;;;;17.60;45.40;;;;;;1606585;73;1189;-72
2023/12/28 06:47:35;;;;;;;;;;;17.50;45.30;;;;;;1606631;73;780;-71
2023/12/28 06:49:37;;;;;;;;;;;17.50;45.30;;;;;;1617111;73;794;-72
2023/12/28 06:51:39;;;;;;;;;;;17.50;45.30;;;;;;1613722;73;779;-72
2023/12/28 06:53:41;;;;;;;;;;;17.60;45.30;;;;;;1592216;73;700;-69
2023/12/28 06:55:43;;;;;;;;;;;17.50;45.40;;;;;;1613828;73;1170;-71
2023/12/28 06:57:45;;;;;;;;;;;17.60;45.30;;;;;;1608025;73;756;-73
2023/12/28 06:59:47;;;;;;;;;;;17.50;45.30;;;;;;1603114;73;758;-72
2023/12/28 07:01:49;;;;;;;;;;;17.50;45.40;;;;;;1600912;73;741;-72
2023/12/28 07:03:51;;;;;;;;;;;17.50;45.30;;;;;;1605429;73;1952;-72
2023/12/28 07:05:53;;;;;;;;;;;17.60;45.30;;;;;;1588094;73;1156;-70
2023/12/28 07:07:55;;;;;;;;;;;17.50;45.30;;;;;;1574482;74;785;-70
2023/12/28 07:09:57;;;;;;;;;;;17.60;45.30;;;;;;1568307;74;704;-70
2023/12/28 07:11:59;;;;;;;;;;;17.60;45.30;;;;;;1534990;76;798;-71
2023/12/28 07:14:01;;;;;;;;;;;17.60;45.30;;;;;;1534839;76;754;-71
2023/12/28 07:16:03;;;;;;;;;;;17.50;45.20;;;;;;1553497;75;1143;-71
2023/12/28 07:18:05;;;;;;;;;;;17.50;45.30;;;;;;1559358;75;664;-74
2023/12/28 07:20:09;;;;;;;;;;;17.20;45.00;;;;;;1561086;74;756;-71
2023/12/28 07:22:11;;;;;;;;;;;17.50;45.20;;;;;;1557446;75;1606;-73
2023/12/28 07:24:12;;;;;;;;;;;17.50;45.20;;;;;;1559760;74;1931;-70
2023/12/28 07:26:14;;;;;;;;;;;17.60;45.20;;;;;;1575817;74;1263;-70
2023/12/28 07:28:16;;;;;;;;;;;17.50;45.20;;;;;;1566861;74;746;-72
2023/12/28 07:30:18;;;;;;;;;;;17.50;45.20;;;;;;1567839;74;830;-72
2023/12/28 07:32:22;;;;;;;;;;;17.50;45.20;;;;;;1570902;74;741;-68
2023/12/28 07:34:23;;;;;;;;;;;17.50;45.30;;;;;;1575610;74;1618;-74
2023/12/28 07:36:25;;;;;;;;;;;17.60;45.30;;;;;;1580063;74;653;-72
2023/12/28 07:38:27;;;;;;;;;;;17.60;45.30;;;;;;1564778;74;800;-71
2023/12/28 07:40:29;;;;;;;;;;;17.50;45.20;;;;;;1575705;74;774;-71
2023/12/28 07:42:31;;;;;;;;;;;17.50;45.20;;;;;;1569690;74;773;-69
2023/12/28 07:44:33;;;;;;;;;;;17.50;45.20;;;;;;1564592;74;1962;-70
2023/12/28 07:46:35;;;;;;;;;;;17.50;45.20;;;;;;1528651;75;789;-71
2023/12/28 07:48:36;;;;;;;;;;;17.50;45.20;;;;;;1533888;75;686;-73
2023/12/28 07:50:38;;;;;;;;;;;17.50;45.20;;;;;;1584551;74;793;-71
2023/12/28 07:52:40;;;;;;;;;;;17.50;45.20;;;;;;1571120;74;774;-69
2023/12/28 07:54:42;;;;;;;;;;;17.50;45.30;;;;;;1573337;74;1168;-69
2023/12/28 07:56:44;;;;;;;;;;;17.50;45.20;;;;;;1565648;74;759;-73
2023/12/28 07:58:46;;;;;;;;;;;17.50;45.20;;;;;;1590320;74;764;-71
2023/12/28 08:00:49;;;;;;;;;;;17.60;45.20;;;;;;1575971;74;754;-72
2023/12/28 08:02:51;;;;;;;;;;;17.60;45.20;;;;;;1560051;74;791;-70
2023/12/28 08:04:52;;;;;;;;;;;17.60;45.20;;;;;;1554011;75;1934;-69
2023/12/28 08:06:54;;;;;;;;;;;17.50;45.20;;;;;;1562221;74;741;-72
2023/12/28 08:08:56;;;;;;;;;;;17.50;45.20;;;;;;1561956;74;650;-72
2023/12/28 08:10:58;;;;;;;;;;;17.50;45.20;;;;;;1552295;74;799;-72
2023/12/28 08:13:00;;;;;;;;;;;17.60;45.20;;;;;;1556571;74;787;-69
2023/12/28 08:15:02;;;;;;;;;;;17.60;45.20;;;;;;1559706;74;1176;-71
2023/12/28 08:17:04;;;;;;;;;;;17.50;45.20;;;;;;1563166;74;776;-71
2023/12/28 08:19:06;;;;;;;;;;;17.60;45.20;;;;;;1560633;74;1454;-70
2023/12/28 08:21:07;;;;;;;;;;;17.50;45.20;;;;;;1562778;74;762;-72
2023/12/28 08:23:09;;;;;;;;;;;17.50;45.20;;;;;;1561447;74;824;-72
2023/12/28 08:25:11;;;;;;;;;;;17.50;45.20;;;;;;1557590;74;1952;-72
2023/12/28 08:27:13;;;;;;;;;;;17.50;45.20;;;;;;1561539;74;728;-72
2023/12/28 08:29:15;;;;;;;;;;;17.60;45.20;;;;;;1562194;74;851;-70
2023/12/28 08:31:17;;;;;;;;;;;17.50;45.20;;;;;;1556521;74;641;-68
2023/12/28 08:33:19;;;;;;;;;;;17.50;45.20;;;;;;1562521;74;771;-69
2023/12/28 08:35:20;;;;;;;;;;;17.60;45.10;;;;;;1563370;74;1168;-69
2023/12/28 08:37:22;;;;;;;;;;;17.50;45.20;;;;;;1563248;74;662;-73
2023/12/28 08:39:24;;;;;;;;;;;17.60;45.10;;;;;;1558574;74;804;-71
2023/12/28 08:41:26;;;;;;;;;;;17.60;45.20;;;;;;1556159;74;787;-72
2023/12/28 08:43:28;;;;;;;;;;;17.60;45.10;;;;;;1528016;76;1936;-74
2023/12/28 08:45:30;;;;;;;;;;;17.50;45.20;;;;;;1566117;74;1185;-70
2023/12/28 08:47:32;;;;;;;;;;;17.60;45.20;;;;;;1537547;75;789;-71
2023/12/28 08:49:34;;;;;;;;;;;17.60;45.20;;;;;;1529645;75;672;-69
2023/12/28 08:51:35;;;;;;;;;;;17.50;45.10;;;;;;1570631;74;794;-71
2023/12/28 08:53:37;;;;;;;;;;;17.50;45.10;;;;;;1573096;74;803;-70
2023/12/28 08:55:39;;;;;;;;;;;17.50;45.10;;;;;;1569212;74;1153;-71
2023/12/28 08:57:41;;;;;;;;;;;17.60;45.10;;;;;;1567156;74;798;-75
2023/12/28 08:59:43;;;;;;;;;;;17.60;45.10;;;;;;1560949;74;791;-70
2023/12/28 09:01:45;;;;;;;;;;;17.60;45.10;;;;;;1560949;75;763;-70
2023/12/28 09:03:48;;;;;;;;;;;17.60;45.10;;;;;;1554876;74;1921;-70
2023/12/28 09:05:50;;;;;;;;;;;17.50;45.10;;;;;;1552016;74;1186;-71
2023/12/28 09:07:51;;;;;;;;;;;17.60;45.10;;;;;;1560088;74;788;-68
2023/12/28 09:09:53;;;;;;;;;;;17.60;45.10;;;;;;1558418;74;811;-71
2023/12/28 09:11:55;;;;;;;;;;;17.60;45.10;;;;;;1558656;74;791;-71
2023/12/28 09:13:58;;;;;;;;;;;17.50;45.10;;;;;;1559239;75;1391;-69
2023/12/28 09:15:59;;;;;;;;;;;17.60;45.10;;;;;;1556628;74;1134;-72
2023/12/28 09:18:01;;;;;;;;;;;17.50;45.10;;;;;;1558072;74;781;-70
2023/12/28 09:20:03;;;;;;;;;;;17.60;45.10;;;;;;1560101;75;772;-72
2023/12/28 09:22:05;;;;;;;;;;;17.50;45.20;;;;;;1554604;74;770;-70
2023/12/28 09:24:07;;;;;;;;;;;17.50;45.10;;;;;;1558997;74;1935;-72
2023/12/28 09:26:09;;;;;;;;;;;17.60;45.10;;;;;;1559902;74;1205;-73
2023/12/28 09:28:11;;;;;;;;;;;17.60;45.10;;;;;;1557438;74;806;-71
2023/12/28 09:30:13;;;;;;;;;;;17.60;45.10;;;;;;1558291;74;765;-72
2023/12/28 09:32:16;;;;;;;;;;;17.50;45.10;;;;;;1567575;74;800;-70
2023/12/28 09:34:18;;;;;;;;;;;17.60;45.20;;;;;;1559096;74;1157;-71
2023/12/28 09:36:20;;;;;;;;;;;17.50;45.10;;;;;;1554031;74;801;-72
2023/12/28 09:38:22;;;;;;;;;;;17.50;45.10;;;;;;1556648;75;750;-68
2023/12/28 09:40:25;;;;;;;;;;;17.60;45.10;;;;;;1559024;74;766;-72
2023/12/28 09:42:26;;;;;;;;;;;17.50;45.10;;;;;;1559211;74;758;-73
2023/12/28 09:44:28;;;;;;;;;;;17.50;45.10;;;;;;1558024;74;1959;-72
2023/12/28 09:46:31;;;;;;;;;;;17.60;45.10;;;;;;1560750;74;755;-72
2023/12/28 09:48:33;;;;;;;;;;;17.50;45.10;;;;;;1558720;74;738;-72
2023/12/28 09:50:35;;;;;;;;;;;17.50;45.10;;;;;;1566903;74;775;-70
2023/12/28 09:52:37;;;;;;;;;;;17.60;45.20;;;;;;1557989;74;812;-70
2023/12/28 09:54:39;;;;;;;;;;;17.60;45.10;;;;;;1558030;74;1166;-73
2023/12/28 09:56:40;;;;;;;;;;;17.60;45.10;;;;;;1532582;76;798;-71
2023/12/28 09:58:42;;;;;;;;;;;17.60;45.10;;;;;;1531161;76;650;-70
2023/12/28 10:00:49;;;;;;;;;;;17.50;45.10;;;;;;1555993;74;767;-72
2023/12/28 10:02:51;;;;;;;;;;;17.60;45.10;;;;;;1534095;76;1150;-72
2023/12/28 10:04:52;;;;;;;;;;;17.50;45.20;;;;;;1574477;74;1933;-72
2023/12/28 10:06:54;;;;;;;;;;;17.60;45.20;;;;;;1553504;74;798;-72
2023/12/28 10:08:56;;;;;;;;;;;17.50;45.10;;;;;;1565677;74;781;-72
2023/12/28 10:10:59;;;;;;;;;;;17.50;45.10;;;;;;1560218;74;1432;-73
2023/12/28 10:13:02;;;;;;;;;;;17.50;45.20;;;;;;1560448;74;762;-71
2023/12/28 10:15:04;;;;;;;;;;;17.60;45.20;;;;;;1561552;74;1169;-72
2023/12/28 10:17:06;;;;;;;;;;;17.50;45.10;;;;;;1563729;74;763;-69
2023/12/28 10:19:08;;;;;;;;;;;17.50;45.20;;;;;;1566706;74;814;-69
2023/12/28 10:21:10;;;;;;;;;;;17.60;45.10;;;;;;1570428;74;770;-71
2023/12/28 10:23:12;;;;;;;;;;;17.50;45.20;;;;;;1570109;74;787;-72
2023/12/28 10:25:14;;;;;;;;;;;17.60;45.10;;;;;;1565118;74;1938;-71
2023/12/28 10:27:16;;;;;;;;;;;17.50;45.10;;;;;;1574648;74;759;-71
2023/12/28 10:29:18;;;;;;;;;;;17.60;45.10;;;;;;1561815;74;779;-75
2023/12/28 10:31:20;;;;;;;;;;;17.60;45.10;;;;;;1561725;74;756;-70
2023/12/28 10:33:21;;;;;;;;;;;17.60;45.10;;;;;;1534816;75;1221;-73
2023/12/28 10:35:23;;;;;;;;;;;17.60;45.10;;;;;;1530228;76;1120;-72
2023/12/28 10:37:25;;;;;;;;;;;17.50;45.10;;;;;;1527751;76;812;-71
2023/12/28 10:39:28;;;;;;;;;;;17.60;45.10;;;;;;1567770;74;785;-70
2023/12/28 10:41:30;;;;;;;;;;;17.60;45.10;;;;;;1529482;75;797;-71
2023/12/28 10:43:32;;;;;;;;;;;17.60;45.20;;;;;;1535660;75;780;-71
2023/12/28 10:45:34;;;;;;;;;;;17.60;45.10;;;;;;1547207;75;1960;-71
2023/12/28 10:47:39;;;;;;;;;;;17.60;45.20;;;;;;1560167;74;791;-71
2023/12/28 10:49:40;;;;;;;;;;;17.60;45.10;;;;;;1532411;75;766;-70
2023/12/28 10:51:49;;;;;;;;;;;17.60;45.10;;;;;;1556815;75;769;-70
2023/12/28 10:53:49;;;;;;;;;;;17.60;45.10;;;;;;1551702;76;1194;-70
2023/12/28 10:55:54;;;;;;;;;;;17.60;45.10;;;;;;1562206;74;1160;-71
2023/12/28 10:58:00;;;;;;;;;;;17.60;45.10;;;;;;1561945;75;715;-73
2023/12/28 11:00:08;;;;;;;;;;;17.60;45.10;;;;;;1562024;74;797;-72
2023/12/28 11:02:10;;;;;;;;;;;17.60;45.10;;;;;;1565451;75;850;-73
2023/12/28 11:04:30;;;;;;;;;;;17.60;45.10;;;;;;1563520;74;1917;-70
2023/12/28 11:06:32;;;;;;;;;;;17.60;45.10;;;;;;1561846;75;1430;-71
2023/12/28 11:08:34;;;;;;;;;;;17.60;45.10;;;;;;1563844;75;764;-70
2023/12/28 11:10:35;;;;;;;;;;;17.60;45.20;;;;;;1562194;76;1101;-72
2023/12/28 11:12:37;;;;;;;;;;;17.50;45.10;;;;;;1563449;76;658;-72
2023/12/28 11:14:39;;;;;;;;;;;17.50;45.10;;;;;;1564571;76;1169;-71
2023/12/28 11:16:41;;;;;;;;;;;17.60;45.00;;;;;;1561877;74;767;-71
2023/12/28 11:18:43;;;;;;;;;;;17.60;45.10;;;;;;1559343;74;640;-72
2023/12/28 11:20:45;;;;;;;;;;;17.60;45.10;;;;;;1563004;75;792;-72
2023/12/28 11:22:47;;;;;;;;;;;17.60;45.00;;;;;;1562335;76;787;-72
2023/12/28 11:24:49;;;;;;;;;;;17.60;45.10;;;;;;1555427;74;1916;-71
2023/12/28 11:26:59;;;;;;;;;;;17.60;45.10;;;;;;1566712;74;752;-72
2023/12/28 11:29:06;;;;;;;;;;;17.60;45.10;;;;;;1551805;76;1269;-72
2023/12/28 11:31:11;;;;;;;;;;;17.60;45.10;;;;;;1560928;74;774;-69
2023/12/28 11:33:12;;;;;;;;;;;17.60;45.10;;;;;;1564185;74;617;-71
2023/12/28 11:35:14;;;;;;;;;;;17.60;45.10;;;;;;1556477;76;1163;-72
2023/12/28 11:37:19;;;;;;;;;;;17.60;45.10;;;;;;1562503;76;755;-72
2023/12/28 11:39:22;;;;;;;;;;;17.60;45.10;;;;;;1556902;74;1647;-73
2023/12/28 11:41:25;;;;;;;;;;;17.60;45.10;;;;;;1558085;74;1623;-72
2023/12/28 11:43:33;;;;;;;;;;;17.60;45.10;;;;;;1556135;75;762;-73
2023/12/28 11:45:31;;;;;;;;;;;17.60;45.10;;;;;;1554723;75;1927;-70
2023/12/28 11:47:33;;;;;;;;;;;17.60;45.10;;;;;;1556202;75;769;-69
2023/12/28 11:49:34;;;;;;;;;;;17.60;45.10;;;;;;1558204;76;787;-70
2023/12/28 11:51:37;;;;;;;;;;;17.60;45.10;;;;;;1562791;75;801;-72
2023/12/28 11:53:39;;;;;;;;;;;17.60;45.10;;;;;;1561318;74;859;-74
2023/12/28 11:55:41;;;;;;;;;;;17.60;45.10;;;;;;1562417;75;1168;-71
2023/12/28 11:57:43;;;;;;;;;;;17.50;45.10;;;;;;1561467;76;739;-71
2023/12/28 11:59:45;;;;;;;;;;;17.60;45.00;;;;;;1562136;74;824;-72
2023/12/28 12:01:51;;;;;;;;;;;17.60;45.10;;;;;;1555747;74;773;-72
2023/12/28 12:03:54;;;;;;;;;;;17.60;45.10;;;;;;1561720;75;1477;-71
2023/12/28 12:05:58;;;;;;;;;;;17.50;45.00;;;;;;1557100;75;1960;-71
2023/12/28 12:08:00;;;;;;;;;;;17.60;45.00;;;;;;1559214;75;789;-72